Flight Track Log - Related Links

Times and Time Zones

All times are in EDT time to prevent confusion due to time zone crossing. See the ASQ5244 flight status page for this flight to view local times or setup timezone preferences in your user account.

Time Position Orientation Groundspeed Altitude Reporting Facility
EDT Latitude Longitude Course Direction KTS MPH feet Rate Location/Type
Thu 10:30:15 AM 32.3092 -86.3650 69° East  Level FlightAware Approximate
Thu 10:31:41 AM 32.3467 -86.2467 51° Northeast 255 293 5,000  Level Atlanta Center
Thu 10:32:41 AM 32.3961 -86.1742 52° Northeast 308 354 7,600 2,550 Climbing Atlanta Center
Thu 10:33:41 AM 32.4497 -86.0917 51° Northeast 315 362 10,100 1,815 Climbing Atlanta Center
Thu 10:34:40 AM 32.5075 -86.0067 50° Northeast 315 362 11,200 1,513 Climbing Atlanta Center
Thu 10:35:40 AM 32.5714 -85.9169 51° Northeast 341 392 13,100 1,950 Climbing Atlanta Center
Thu 10:36:40 AM 32.6333 -85.8247 52° Northeast 353 406 15,100 1,850 Climbing Atlanta Center
Thu 10:37:40 AM 32.6972 -85.7272 50° Northeast 364 419 16,800 1,300 Climbing Atlanta Center
Thu 10:38:40 AM 32.7653 -85.6297 51° Northeast 364 419 17,700 600 Climbing Atlanta Center
Thu 10:39:40 AM 32.8356 -85.5272 52° Northeast 386 444 18,000 150 Climbing Atlanta Center
Thu 10:40:40 AM 32.8994 -85.4292 50° Northeast 399 459 18,000  Level Atlanta Center
Thu 10:41:40 AM 32.9714 -85.3264 50° Northeast 404 465 18,000 -950 Level Atlanta Center
Thu 10:42:40 AM 33.0414 -85.2258 49° Northeast 405 466 16,100 -2,250 Descending Atlanta Center
Thu 10:43:40 AM 33.1175 -85.1203 46° Northeast 388 447 13,500 -2,000 Descending Atlanta Center
Thu 10:44:40 AM 33.1850 -85.0367 50° Northeast 367 422 12,100 -1,200 Descending Atlanta Center
Thu 10:45:40 AM 33.2378 -84.9603 47° Northeast 317 365 11,100 -1,250 Descending Atlanta Center
Thu 10:46:40 AM 33.2925 -84.8889 30° Northeast 297 342 9,600 -1,550 Descending Atlanta Center
Thu 10:47:40 AM 33.3639 -84.8397 19° North 284 327 8,000 -1,550 Descending Atlanta Center
Thu 10:48:40 AM 33.4392 -84.8081 33° Northeast 276 318 6,500 -1,636 Descending Atlanta Center
Thu 10:49:41 AM 33.5019 -84.7589 37° Northeast 271 312 4,700 -1,488 Descending Atlanta Center
Thu 10:50:41 AM 33.5628 -84.7044 46° Northeast 271 312 3,500 -605 Descending Atlanta Center
Thu 10:51:40 AM 33.6111 -84.6450 67° East 258 297 3,500 -252 Level Atlanta Center
Thu 10:52:40 AM 33.6333 -84.5833 90° East 194 223 3,000 -626 Descending Atlanta TRACON
Thu 10:53:35 AM 33.6333 -84.5333 90° East 182 209 2,300 -783 Descending Atlanta TRACON
Thu 10:54:35 AM 33.6333 -84.4667 90° East 149 171 1,500 -800 Descending Atlanta TRACON

Login

Don't have an account? Register now (free) for customized features, flight alerts, and more!